sensor_id;sensor_type;location;lat;lon;timestamp;pressure;altitude;pressure_sealevel;temperature;humidity
80938;BME280;70395;51.382;7.074;2023-12-28T00:01:34;99922.81;;;9.96;62.51
80938;BME280;70395;51.382;7.074;2023-12-28T00:04:00;99908.59;;;9.96;62.90
80938;BME280;70395;51.382;7.074;2023-12-28T00:06:26;99929.19;;;9.95;63.29
80938;BME280;70395;51.382;7.074;2023-12-28T00:08:52;99931.03;;;9.95;63.34
80938;BME280;70395;51.382;7.074;2023-12-28T00:11:17;99919.47;;;9.94;64.04
80938;BME280;70395;51.382;7.074;2023-12-28T00:13:43;99938.22;;;9.94;64.47
80938;BME280;70395;51.382;7.074;2023-12-28T00:16:09;99946.94;;;9.96;64.46
80938;BME280;70395;51.382;7.074;2023-12-28T00:18:35;99936.91;;;9.98;64.15
80938;BME280;70395;51.382;7.074;2023-12-28T00:21:01;99923.22;;;10.01;64.12
80938;BME280;70395;51.382;7.074;2023-12-28T00:23:27;99944.34;;;10.05;64.29
80938;BME280;70395;51.382;7.074;2023-12-28T00:25:52;99934.50;;;10.05;64.36
80938;BME280;70395;51.382;7.074;2023-12-28T00:28:18;99935.31;;;10.06;64.54
80938;BME280;70395;51.382;7.074;2023-12-28T00:30:44;99929.94;;;10.06;64.85
80938;BME280;70395;51.382;7.074;2023-12-28T00:33:10;99919.63;;;10.11;64.66
80938;BME280;70395;51.382;7.074;2023-12-28T00:35:36;99927.38;;;10.14;64.62
80938;BME280;70395;51.382;7.074;2023-12-28T00:38:02;99928.72;;;10.18;64.52
80938;BME280;70395;51.382;7.074;2023-12-28T00:40:28;99941.66;;;10.23;64.57
80938;BME280;70395;51.382;7.074;2023-12-28T00:42:53;99940.41;;;10.27;64.47
80938;BME280;70395;51.382;7.074;2023-12-28T00:45:19;99938.06;;;10.32;64.63
80938;BME280;70395;51.382;7.074;2023-12-28T00:47:45;99939.31;;;10.38;64.26
80938;BME280;70395;51.382;7.074;2023-12-28T00:50:11;99945.22;;;10.42;64.19
80938;BME280;70395;51.382;7.074;2023-12-28T00:52:38;99947.72;;;10.43;64.18
80938;BME280;70395;51.382;7.074;2023-12-28T00:55:04;99938.38;;;10.47;64.31
80938;BME280;70395;51.382;7.074;2023-12-28T00:57:30;99941.75;;;10.50;64.42
80938;BME280;70395;51.382;7.074;2023-12-28T00:59:56;99944.16;;;10.53;64.38
80938;BME280;70395;51.382;7.074;2023-12-28T01:02:23;99937.19;;;10.60;64.23
80938;BME280;70395;51.382;7.074;2023-12-28T01:04:48;99928.66;;;10.65;64.21
80938;BME280;70395;51.382;7.074;2023-12-28T01:07:14;99938.09;;;10.69;64.24
80938;BME280;70395;51.382;7.074;2023-12-28T01:09:40;99940.31;;;10.74;64.16
80938;BME280;70395;51.382;7.074;2023-12-28T01:12:06;99940.69;;;10.79;64.52
80938;BME280;70395;51.382;7.074;2023-12-28T01:14:32;99933.16;;;10.83;64.38
80938;BME280;70395;51.382;7.074;2023-12-28T01:16:58;99948.78;;;10.87;64.25
80938;BME280;70395;51.382;7.074;2023-12-28T01:19:24;99947.47;;;10.91;64.22
80938;BME280;70395;51.382;7.074;2023-12-28T01:21:50;99954.03;;;10.97;64.27
80938;BME280;70395;51.382;7.074;2023-12-28T01:24:16;99953.06;;;10.98;64.18
80938;BME280;70395;51.382;7.074;2023-12-28T01:26:43;99953.44;;;11.03;64.45
80938;BME280;70395;51.382;7.074;2023-12-28T01:29:09;99977.78;;;11.10;64.25
80938;BME280;70395;51.382;7.074;2023-12-28T01:31:35;99971.94;;;11.15;64.26
80938;BME280;70395;51.382;7.074;2023-12-28T01:34:01;99980.50;;;11.19;64.29
80938;BME280;70395;51.382;7.074;2023-12-28T01:36:27;99972.84;;;11.24;64.24
80938;BME280;70395;51.382;7.074;2023-12-28T01:38:55;99960.78;;;11.28;64.10
80938;BME280;70395;51.382;7.074;2023-12-28T01:41:21;99961.31;;;11.32;64.07
80938;BME280;70395;51.382;7.074;2023-12-28T01:43:47;99976.25;;;11.34;63.84
80938;BME280;70395;51.382;7.074;2023-12-28T01:46:17;99990.34;;;11.36;64.06
80938;BME280;70395;51.382;7.074;2023-12-28T01:48:47;99967.72;;;11.39;64.12
80938;BME280;70395;51.382;7.074;2023-12-28T01:51:14;99981.69;;;11.43;63.92
80938;BME280;70395;51.382;7.074;2023-12-28T01:53:42;99972.59;;;11.44;63.84
80938;BME280;70395;51.382;7.074;2023-12-28T01:56:09;99984.19;;;11.44;63.82
80938;BME280;70395;51.382;7.074;2023-12-28T01:58:37;99983.53;;;11.42;64.07
80938;BME280;70395;51.382;7.074;2023-12-28T02:01:06;99969.25;;;11.42;63.74
80938;BME280;70395;51.382;7.074;2023-12-28T02:03:32;99982.66;;;11.42;63.93
80938;BME280;70395;51.382;7.074;2023-12-28T02:06:00;99977.47;;;11.40;63.41
80938;BME280;70395;51.382;7.074;2023-12-28T02:08:26;99980.16;;;11.40;63.83
80938;BME280;70395;51.382;7.074;2023-12-28T02:10:52;99972.09;;;11.40;63.71
80938;BME280;70395;51.382;7.074;2023-12-28T02:13:18;99978.16;;;11.42;63.94
80938;BME280;70395;51.382;7.074;2023-12-28T02:15:51;99976.44;;;11.41;63.88
80938;BME280;70395;51.382;7.074;2023-12-28T02:18:24;99980.84;;;11.42;63.72
80938;BME280;70395;51.382;7.074;2023-12-28T02:20:53;99981.50;;;11.44;63.83
80938;BME280;70395;51.382;7.074;2023-12-28T02:23:19;99996.47;;;11.47;63.43
80938;BME280;70395;51.382;7.074;2023-12-28T02:25:45;99984.69;;;11.48;63.49
80938;BME280;70395;51.382;7.074;2023-12-28T02:28:11;99992.44;;;11.51;63.62
80938;BME280;70395;51.382;7.074;2023-12-28T02:30:37;99991.59;;;11.51;63.39
80938;BME280;70395;51.382;7.074;2023-12-28T02:33:29;99985.41;;;11.50;63.54
80938;BME280;70395;51.382;7.074;2023-12-28T02:36:04;99998.66;;;11.52;63.58
80938;BME280;70395;51.382;7.074;2023-12-28T02:38:36;100003.88;;;11.53;63.44
80938;BME280;70395;51.382;7.074;2023-12-28T02:41:04;99995.50;;;11.56;63.68
80938;BME280;70395;51.382;7.074;2023-12-28T02:43:30;99999.72;;;11.59;63.32
80938;BME280;70395;51.382;7.074;2023-12-28T02:45:57;99995.19;;;11.59;63.27
80938;BME280;70395;51.382;7.074;2023-12-28T02:48:23;99996.84;;;11.60;63.33
80938;BME280;70395;51.382;7.074;2023-12-28T02:50:49;100005.25;;;11.57;63.53
80938;BME280;70395;51.382;7.074;2023-12-28T02:53:14;99997.19;;;11.57;63.53
80938;BME280;70395;51.382;7.074;2023-12-28T02:55:40;100007.09;;;11.57;63.44
80938;BME280;70395;51.382;7.074;2023-12-28T02:58:06;99989.13;;;11.57;63.24
80938;BME280;70395;51.382;7.074;2023-12-28T03:00:32;99976.69;;;11.56;63.23
80938;BME280;70395;51.382;7.074;2023-12-28T03:02:58;99982.38;;;11.53;63.34
80938;BME280;70395;51.382;7.074;2023-12-28T03:05:23;99981.56;;;11.53;63.37
80938;BME280;70395;51.382;7.074;2023-12-28T03:07:49;99985.91;;;11.54;63.62
80938;BME280;70395;51.382;7.074;2023-12-28T03:10:15;99974.00;;;11.56;63.36
80938;BME280;70395;51.382;7.074;2023-12-28T03:12:41;99990.66;;;11.60;63.60
80938;BME280;70395;51.382;7.074;2023-12-28T03:15:07;99969.19;;;11.60;63.21
80938;BME280;70395;51.382;7.074;2023-12-28T03:17:34;99977.06;;;11.62;63.48
80938;BME280;70395;51.382;7.074;2023-12-28T03:20:00;99978.59;;;11.64;63.44
80938;BME280;70395;51.382;7.074;2023-12-28T03:22:26;99981.63;;;11.69;63.13
80938;BME280;70395;51.382;7.074;2023-12-28T03:24:52;99980.31;;;11.74;63.03
80938;BME280;70395;51.382;7.074;2023-12-28T03:27:18;99978.97;;;11.78;63.03
80938;BME280;70395;51.382;7.074;2023-12-28T03:29:44;99988.22;;;11.83;63.06
80938;BME280;70395;51.382;7.074;2023-12-28T03:32:10;99990.44;;;11.88;62.85
80938;BME280;70395;51.382;7.074;2023-12-28T03:34:36;99985.72;;;11.90;63.02
80938;BME280;70395;51.382;7.074;2023-12-28T03:37:02;99982.06;;;11.91;62.51
80938;BME280;70395;51.382;7.074;2023-12-28T03:39:28;99984.88;;;11.90;63.10
80938;BME280;70395;51.382;7.074;2023-12-28T03:41:54;99974.13;;;11.90;62.87
80938;BME280;70395;51.382;7.074;2023-12-28T03:44:21;99975.66;;;11.92;62.99
80938;BME280;70395;51.382;7.074;2023-12-28T03:46:50;99964.78;;;11.94;62.50
80938;BME280;70395;51.382;7.074;2023-12-28T03:49:20;99968.28;;;11.94;62.31
80938;BME280;70395;51.382;7.074;2023-12-28T03:51:49;99969.13;;;11.95;62.42
80938;BME280;70395;51.382;7.074;2023-12-28T03:54:19;99965.44;;;11.96;62.51
80938;BME280;70395;51.382;7.074;2023-12-28T03:56:48;99959.03;;;11.97;62.50
80938;BME280;70395;51.382;7.074;2023-12-28T03:59:14;99956.03;;;12.00;62.17
80938;BME280;70395;51.382;7.074;2023-12-28T04:01:41;99960.41;;;12.01;62.33
80938;BME280;70395;51.382;7.074;2023-12-28T04:04:07;99963.78;;;12.03;62.19
80938;BME280;70395;51.382;7.074;2023-12-28T04:06:33;99972.69;;;12.04;61.97
80938;BME280;70395;51.382;7.074;2023-12-28T04:08:58;99970.31;;;12.01;62.40
80938;BME280;70395;51.382;7.074;2023-12-28T04:11:24;99974.84;;;12.00;62.32
80938;BME280;70395;51.382;7.074;2023-12-28T04:13:50;99965.81;;;12.01;61.99
80938;BME280;70395;51.382;7.074;2023-12-28T04:16:16;99974.69;;;12.02;62.02
80938;BME280;70395;51.382;7.074;2023-12-28T04:18:42;99968.31;;;12.03;62.15
80938;BME280;70395;51.382;7.074;2023-12-28T04:21:12;99959.41;;;12.02;61.69
80938;BME280;70395;51.382;7.074;2023-12-28T04:23:40;99964.78;;;12.02;61.72
80938;BME280;70395;51.382;7.074;2023-12-28T04:26:07;99961.41;;;12.00;61.44
80938;BME280;70395;51.382;7.074;2023-12-28T04:28:33;99959.03;;;11.97;61.56
80938;BME280;70395;51.382;7.074;2023-12-28T04:31:06;99953.16;;;11.93;62.05
80938;BME280;70395;51.382;7.074;2023-12-28T04:33:32;99960.22;;;11.94;61.90
80938;BME280;70395;51.382;7.074;2023-12-28T04:36:02;99965.59;;;11.94;61.83
80938;BME280;70395;51.382;7.074;2023-12-28T04:38:31;99954.03;;;11.94;61.80
80938;BME280;70395;51.382;7.074;2023-12-28T04:40:58;99949.16;;;11.98;61.80
80938;BME280;70395;51.382;7.074;2023-12-28T04:43:23;99967.81;;;11.99;61.43
80938;BME280;70395;51.382;7.074;2023-12-28T04:45:51;99960.41;;;12.01;61.81
80938;BME280;70395;51.382;7.074;2023-12-28T04:48:17;99959.94;;;12.06;61.63
80938;BME280;70395;51.382;7.074;2023-12-28T04:50:47;99969.34;;;12.10;61.43
80938;BME280;70395;51.382;7.074;2023-12-28T04:53:13;99955.72;;;12.12;60.95
80938;BME280;70395;51.382;7.074;2023-12-28T04:55:39;99965.19;;;12.16;61.05
80938;BME280;70395;51.382;7.074;2023-12-28T04:58:05;99967.69;;;12.18;60.73
80938;BME280;70395;51.382;7.074;2023-12-28T05:00:31;99971.25;;;12.18;60.82
80938;BME280;70395;51.382;7.074;2023-12-28T05:02:57;99971.06;;;12.20;60.53
80938;BME280;70395;51.382;7.074;2023-12-28T05:05:22;99957.47;;;12.21;60.84
80938;BME280;70395;51.382;7.074;2023-12-28T05:07:48;99977.13;;;12.22;60.30
80938;BME280;70395;51.382;7.074;2023-12-28T05:10:14;99978.81;;;12.23;60.38
80938;BME280;70395;51.382;7.074;2023-12-28T05:12:40;99968.91;;;12.23;60.44
80938;BME280;70395;51.382;7.074;2023-12-28T05:15:06;99974.94;;;12.25;60.26
80938;BME280;70395;51.382;7.074;2023-12-28T05:17:32;99978.50;;;12.26;60.01
80938;BME280;70395;51.382;7.074;2023-12-28T05:19:58;99992.75;;;12.26;60.02
80938;BME280;70395;51.382;7.074;2023-12-28T05:22:23;99988.38;;;12.25;59.60
80938;BME280;70395;51.382;7.074;2023-12-28T05:24:49;100017.63;;;12.29;59.98
80938;BME280;70395;51.382;7.074;2023-12-28T05:27:15;100011.25;;;12.30;59.81
80938;BME280;70395;51.382;7.074;2023-12-28T05:29:41;100000.66;;;12.28;59.58
80938;BME280;70395;51.382;7.074;2023-12-28T05:32:07;99993.59;;;12.27;59.77
80938;BME280;70395;51.382;7.074;2023-12-28T05:34:33;99995.59;;;12.25;59.45
80938;BME280;70395;51.382;7.074;2023-12-28T05:36:58;99994.75;;;12.24;59.47
80938;BME280;70395;51.382;7.074;2023-12-28T05:39:24;100016.25;;;12.24;59.39
80938;BME280;70395;51.382;7.074;2023-12-28T05:41:50;100006.53;;;12.23;59.74
80938;BME280;70395;51.382;7.074;2023-12-28T05:44:16;100014.44;;;12.25;59.68
80938;BME280;70395;51.382;7.074;2023-12-28T05:46:42;100014.59;;;12.23;59.74
80938;BME280;70395;51.382;7.074;2023-12-28T05:49:08;100010.22;;;12.22;59.86
80938;BME280;70395;51.382;7.074;2023-12-28T05:51:38;100023.97;;;12.19;59.72
80938;BME280;70395;51.382;7.074;2023-12-28T05:54:06;100019.78;;;12.16;59.85
80938;BME280;70395;51.382;7.074;2023-12-28T05:56:32;100012.72;;;12.15;59.42
80938;BME280;70395;51.382;7.074;2023-12-28T05:58:58;100019.09;;;12.14;59.50
80938;BME280;70395;51.382;7.074;2023-12-28T06:01:24;100009.66;;;12.10;59.54
80938;BME280;70395;51.382;7.074;2023-12-28T06:03:50;100017.03;;;12.08;59.54
80938;BME280;70395;51.382;7.074;2023-12-28T06:06:18;100025.94;;;12.09;59.70
80938;BME280;70395;51.382;7.074;2023-12-28T06:08:44;100025.94;;;12.09;59.54
80938;BME280;70395;51.382;7.074;2023-12-28T06:11:10;100039.38;;;12.09;59.48
80938;BME280;70395;51.382;7.074;2023-12-28T06:13:36;100035.84;;;12.08;59.32
80938;BME280;70395;51.382;7.074;2023-12-28T06:16:02;100047.44;;;12.09;59.27
80938;BME280;70395;51.382;7.074;2023-12-28T06:18:28;100050.13;;;12.09;59.26
80938;BME280;70395;51.382;7.074;2023-12-28T06:20:54;100048.44;;;12.08;59.30
80938;BME280;70395;51.382;7.074;2023-12-28T06:23:20;100051.81;;;12.10;59.30
80938;BME280;70395;51.382;7.074;2023-12-28T06:25:46;100051.81;;;12.10;59.27
80938;BME280;70395;51.382;7.074;2023-12-28T06:28:12;100045.44;;;12.11;58.89
80938;BME280;70395;51.382;7.074;2023-12-28T06:30:38;100035.00;;;12.08;59.05
80938;BME280;70395;51.382;7.074;2023-12-28T06:33:05;100039.38;;;12.09;59.27
80938;BME280;70395;51.382;7.074;2023-12-28T06:35:31;100031.47;;;12.07;59.06
80938;BME280;70395;51.382;7.074;2023-12-28T06:37:57;100049.28;;;12.08;59.17
80938;BME280;70395;51.382;7.074;2023-12-28T06:40:23;100047.59;;;12.07;58.87
80938;BME280;70395;51.382;7.074;2023-12-28T06:42:48;100049.28;;;12.08;58.96
80938;BME280;70395;51.382;7.074;2023-12-28T06:45:14;100039.38;;;12.09;59.20
80938;BME280;70395;51.382;7.074;2023-12-28T06:47:40;100036.69;;;12.09;58.71
80938;BME280;70395;51.382;7.074;2023-12-28T06:50:07;100031.31;;;12.09;58.72
80938;BME280;70395;51.382;7.074;2023-12-28T06:52:33;100028.78;;;12.07;59.08
80938;BME280;70395;51.382;7.074;2023-12-28T06:54:59;100024.75;;;12.03;59.08
80938;BME280;70395;51.382;7.074;2023-12-28T06:57:24;100029.28;;;12.02;59.14
80938;BME280;70395;51.382;7.074;2023-12-28T06:59:50;100032.97;;;12.01;59.12
80938;BME280;70395;51.382;7.074;2023-12-28T07:02:16;100048.44;;;11.99;58.93
80938;BME280;70395;51.382;7.074;2023-12-28T07:04:42;100020.84;;;11.97;58.68
80938;BME280;70395;51.382;7.074;2023-12-28T07:07:08;100040.16;;;11.92;58.85
80938;BME280;70395;51.382;7.074;2023-12-28T07:09:35;100039.63;;;11.89;58.81
80938;BME280;70395;51.382;7.074;2023-12-28T07:12:01;100029.75;;;11.89;58.95
80938;BME280;70395;51.382;7.074;2023-12-28T07:14:27;100042.84;;;11.92;58.91
80938;BME280;70395;51.382;7.074;2023-12-28T07:16:53;100036.63;;;11.92;59.00
80938;BME280;70395;51.382;7.074;2023-12-28T07:19:19;100047.03;;;11.95;58.97
80938;BME280;70395;51.382;7.074;2023-12-28T07:21:45;100049.59;;;11.97;58.68
80938;BME280;70395;51.382;7.074;2023-12-28T07:24:11;100041.19;;;12.00;58.57
80938;BME280;70395;51.382;7.074;2023-12-28T07:26:37;100048.94;;;12.03;59.08
80938;BME280;70395;51.382;7.074;2023-12-28T07:29:03;100049.78;;;12.03;58.37
80938;BME280;70395;51.382;7.074;2023-12-28T07:31:29;100045.41;;;12.02;58.42
80938;BME280;70395;51.382;7.074;2023-12-28T07:33:57;100050.63;;;12.04;58.10
80938;BME280;70395;51.382;7.074;2023-12-28T07:36:22;100049.59;;;12.05;58.59
80938;BME280;70395;51.382;7.074;2023-12-28T07:38:48;100047.59;;;12.07;58.52
80938;BME280;70395;51.382;7.074;2023-12-28T07:41:14;100049.47;;;12.07;58.54
80938;BME280;70395;51.382;7.074;2023-12-28T07:43:41;100047.44;;;12.09;58.06
80938;BME280;70395;51.382;7.074;2023-12-28T07:46:07;100050.81;;;12.11;58.46
80938;BME280;70395;51.382;7.074;2023-12-28T07:48:33;100052.81;;;12.09;58.40
80938;BME280;70395;51.382;7.074;2023-12-28T07:51:03;100057.19;;;12.10;57.97
80938;BME280;70395;51.382;7.074;2023-12-28T07:53:29;100065.91;;;12.12;58.09
80938;BME280;70395;51.382;7.074;2023-12-28T07:55:54;100068.59;;;12.12;58.04
80938;BME280;70395;51.382;7.074;2023-12-28T07:58:21;100082.78;;;12.14;57.98
80938;BME280;70395;51.382;7.074;2023-12-28T08:00:47;100093.34;;;12.15;58.37
80938;BME280;70395;51.382;7.074;2023-12-28T08:03:13;100087.81;;;12.17;58.32
80938;BME280;70395;51.382;7.074;2023-12-28T08:05:41;100097.41;;;12.20;57.89
80938;BME280;70395;51.382;7.074;2023-12-28T08:08:07;100094.56;;;12.21;58.01
80938;BME280;70395;51.382;7.074;2023-12-28T08:10:33;100107.00;;;12.22;58.04
80938;BME280;70395;51.382;7.074;2023-12-28T08:12:59;100094.41;;;12.23;57.81
80938;BME280;70395;51.382;7.074;2023-12-28T08:15:25;100102.16;;;12.26;58.14
80938;BME280;70395;51.382;7.074;2023-12-28T08:17:51;100098.44;;;12.27;57.70
80938;BME280;70395;51.382;7.074;2023-12-28T08:20:17;100101.97;;;12.27;57.88
80938;BME280;70395;51.382;7.074;2023-12-28T08:22:43;100110.72;;;12.30;57.75
80938;BME280;70395;51.382;7.074;2023-12-28T08:25:09;100105.69;;;12.35;57.98
80938;BME280;70395;51.382;7.074;2023-12-28T08:27:36;100108.91;;;12.38;57.74
80938;BME280;70395;51.382;7.074;2023-12-28T08:30:02;100114.28;;;12.38;57.32
80938;BME280;70395;51.382;7.074;2023-12-28T08:32:28;100107.91;;;12.39;57.57
80938;BME280;70395;51.382;7.074;2023-12-28T08:34:54;100118.66;;;12.39;57.24
80938;BME280;70395;51.382;7.074;2023-12-28T08:37:20;100108.91;;;12.38;57.69
80938;BME280;70395;51.382;7.074;2023-12-28T08:39:45;100117.50;;;12.42;57.43
80938;BME280;70395;51.382;7.074;2023-12-28T08:42:11;100123.72;;;12.43;57.51
80938;BME280;70395;51.382;7.074;2023-12-28T08:44:37;100123.03;;;12.49;57.62
80938;BME280;70395;51.382;7.074;2023-12-28T08:47:03;100127.13;;;12.53;57.00
80938;BME280;70395;51.382;7.074;2023-12-28T08:49:29;100125.25;;;12.54;56.50
80938;BME280;70395;51.382;7.074;2023-12-28T08:51:55;100127.13;;;12.53;56.77
80938;BME280;70395;51.382;7.074;2023-12-28T08:54:20;100125.25;;;12.54;57.17
80938;BME280;70395;51.382;7.074;2023-12-28T08:56:46;100128.63;;;12.56;57.00
80938;BME280;70395;51.382;7.074;2023-12-28T08:59:14;100127.78;;;12.55;56.76
80938;BME280;70395;51.382;7.074;2023-12-28T09:01:39;100127.78;;;12.55;56.92
80938;BME280;70395;51.382;7.074;2023-12-28T09:04:05;100139.06;;;12.59;56.54
80938;BME280;70395;51.382;7.074;2023-12-28T09:06:31;100145.81;;;12.63;56.93
80938;BME280;70395;51.382;7.074;2023-12-28T09:08:57;100146.47;;;12.65;56.78
80938;BME280;70395;51.382;7.074;2023-12-28T09:11:23;100150.69;;;12.68;56.76
80938;BME280;70395;51.382;7.074;2023-12-28T09:13:49;100142.44;;;12.69;56.79
80938;BME280;70395;51.382;7.074;2023-12-28T09:16:15;100139.75;;;12.69;56.61
80938;BME280;70395;51.382;7.074;2023-12-28T09:18:42;100139.59;;;12.71;56.89
80938;BME280;70395;51.382;7.074;2023-12-28T09:21:09;100147.66;;;12.71;56.58
80938;BME280;70395;51.382;7.074;2023-12-28T09:23:36;100141.09;;;12.73;56.88
80938;BME280;70395;51.382;7.074;2023-12-28T09:26:04;100127.34;;;12.77;56.93
80938;BME280;70395;51.382;7.074;2023-12-28T09:28:32;100147.88;;;12.78;56.28
80938;BME280;70395;51.382;7.074;2023-12-28T09:30:58;100145.84;;;12.80;56.32
80938;BME280;70395;51.382;7.074;2023-12-28T09:33:24;100142.00;;;12.82;56.11
80938;BME280;70395;51.382;7.074;2023-12-28T09:35:50;100150.06;;;12.82;56.13
80938;BME280;70395;51.382;7.074;2023-12-28T09:38:16;100148.03;;;12.84;56.28
80938;BME280;70395;51.382;7.074;2023-12-28T09:40:42;100150.56;;;12.86;56.46
80938;BME280;70395;51.382;7.074;2023-12-28T09:43:25;100149.72;;;12.86;55.93
80938;BME280;70395;51.382;7.074;2023-12-28T09:45:52;100144.84;;;12.89;56.08
80938;BME280;70395;51.382;7.074;2023-12-28T09:48:20;100157.13;;;12.92;55.78
80938;BME280;70395;51.382;7.074;2023-12-28T09:50:53;100149.06;;;12.92;55.69
80938;BME280;70395;51.382;7.074;2023-12-28T09:53:24;100156.28;;;12.91;55.57
80938;BME280;70395;51.382;7.074;2023-12-28T09:55:51;100149.75;;;12.94;55.87
80938;BME280;70395;51.382;7.074;2023-12-28T09:58:21;100150.25;;;12.98;55.85
80938;BME280;70395;51.382;7.074;2023-12-28T10:00:49;100153.44;;;13.01;55.61
80938;BME280;70395;51.382;7.074;2023-12-28T10:03:17;100146.22;;;13.02;55.60
80938;BME280;70395;51.382;7.074;2023-12-28T10:05:44;100143.22;;;13.05;55.69
80938;BME280;70395;51.382;7.074;2023-12-28T10:08:15;100140.03;;;13.10;55.62
80938;BME280;70395;51.382;7.074;2023-12-28T10:10:43;100134.28;;;13.13;55.78
80938;BME280;70395;51.382;7.074;2023-12-28T10:13:10;100150.94;;;13.25;55.55
80938;BME280;70395;51.382;7.074;2023-12-28T10:15:37;100137.00;;;13.38;55.45
80938;BME280;70395;51.382;7.074;2023-12-28T10:18:06;100136.50;;;13.51;55.07
80938;BME280;70395;51.382;7.074;2023-12-28T10:20:32;100138.19;;;13.60;55.00
80938;BME280;70395;51.382;7.074;2023-12-28T10:22:59;100132.09;;;13.75;54.83
80938;BME280;70395;51.382;7.074;2023-12-28T10:25:25;100133.94;;;13.83;54.17
80938;BME280;70395;51.382;7.074;2023-12-28T10:27:52;100128.56;;;13.83;53.54
80938;BME280;70395;51.382;7.074;2023-12-28T10:30:21;100124.84;;;13.84;53.85
80938;BME280;70395;51.382;7.074;2023-12-28T10:32:47;100130.53;;;13.98;53.81
80938;BME280;70395;51.382;7.074;2023-12-28T10:35:13;100137.06;;;14.12;52.87
80938;BME280;70395;51.382;7.074;2023-12-28T10:37:41;100134.00;;;14.23;52.59
80938;BME280;70395;51.382;7.074;2023-12-28T10:40:14;100130.44;;;14.31;52.28
80938;BME280;70395;51.382;7.074;2023-12-28T10:42:58;100127.19;;;14.36;53.10
80938;BME280;70395;51.382;7.074;2023-12-28T10:45:31;100121.81;;;14.36;52.58
80938;BME280;70395;51.382;7.074;2023-12-28T10:48:07;100131.59;;;14.37;52.64
80938;BME280;70395;51.382;7.074;2023-12-28T10:50:47;100110.28;;;14.50;52.18
80938;BME280;70395;51.382;7.074;2023-12-28T10:56:44;100114.91;;;14.65;51.67
80938;BME280;70395;51.382;7.074;2023-12-28T11:02:01;100110.66;;;14.47;51.62
80938;BME280;70395;51.382;7.074;2023-12-28T11:06:56;100103.25;;;14.41;51.77
80938;BME280;70395;51.382;7.074;2023-12-28T11:09:24;100111.88;;;14.36;51.79
80938;BME280;70395;51.382;7.074;2023-12-28T11:11:55;100109.81;;;14.38;51.54
80938;BME280;70395;51.382;7.074;2023-12-28T11:14:27;100108.28;;;14.44;51.67
80938;BME280;70395;51.382;7.074;2023-12-28T11:16:55;100113.16;;;14.49;50.77
80938;BME280;70395;51.382;7.074;2023-12-28T11:19:22;100120.41;;;14.48;51.25
80938;BME280;70395;51.382;7.074;2023-12-28T11:21:50;100110.13;;;14.44;51.67
80938;BME280;70395;51.382;7.074;2023-12-28T11:24:17;100112.00;;;14.43;51.96
80938;BME280;70395;51.382;7.074;2023-12-28T11:26:43;100112.19;;;14.41;51.30
80938;BME280;70395;51.382;7.074;2023-12-28T11:29:09;100108.16;;;14.37;51.05
80938;BME280;70395;51.382;7.074;2023-12-28T11:31:36;100112.22;;;14.33;51.40
80938;BME280;70395;51.382;7.074;2023-12-28T11:34:04;100098.56;;;14.35;51.01
80938;BME280;70395;51.382;7.074;2023-12-28T11:36:36;100102.78;;;14.37;51.12
80938;BME280;70395;51.382;7.074;2023-12-28T11:39:05;100093.09;;;14.43;51.17
80938;BME280;70395;51.382;7.074;2023-12-28T11:41:36;100100.00;;;14.46;51.23
80938;BME280;70395;51.382;7.074;2023-12-28T11:44:05;100107.56;;;14.50;51.25
80938;BME280;70395;51.382;7.074;2023-12-28T11:46:32;100098.13;;;14.55;51.03
80938;BME280;70395;51.382;7.074;2023-12-28T11:49:07;100100.44;;;14.58;51.29
80938;BME280;70395;51.382;7.074;2023-12-28T11:51:37;100086.63;;;14.61;50.15
80938;BME280;70395;51.382;7.074;2023-12-28T11:54:04;100073.31;;;14.59;50.03
80938;BME280;70395;51.382;7.074;2023-12-28T11:56:31;100073.66;;;14.56;50.46
80938;BME280;70395;51.382;7.074;2023-12-28T11:58:58;100077.84;;;14.59;50.16
80938;BME280;70395;51.382;7.074;2023-12-28T12:01:24;100080.06;;;14.55;50.34
80938;BME280;70395;51.382;7.074;2023-12-28T12:03:50;100089.38;;;14.52;50.39
80938;BME280;70395;51.382;7.074;2023-12-28T12:06:16;100079.41;;;14.53;49.89
80938;BME280;70395;51.382;7.074;2023-12-28T12:08:46;100087.50;;;14.53;50.21
80938;BME280;70395;51.382;7.074;2023-12-28T12:11:17;100082.47;;;14.50;50.00
80938;BME280;70395;51.382;7.074;2023-12-28T12:13:44;100070.34;;;14.46;50.38
80938;BME280;70395;51.382;7.074;2023-12-28T12:16:13;100071.19;;;14.46;50.58
80938;BME280;70395;51.382;7.074;2023-12-28T12:18:40;100061.56;;;14.52;49.76
80938;BME280;70395;51.382;7.074;2023-12-28T12:21:06;100062.91;;;14.48;49.65
80938;BME280;70395;51.382;7.074;2023-12-28T12:23:32;100049.59;;;14.46;49.78
80938;BME280;70395;51.382;7.074;2023-12-28T12:25:58;100064.63;;;14.40;49.79
80938;BME280;70395;51.382;7.074;2023-12-28T12:28:24;100055.03;;;14.38;49.99
80938;BME280;70395;51.382;7.074;2023-12-28T12:30:57;100063.50;;;14.35;49.87
80938;BME280;70395;51.382;7.074;2023-12-28T12:33:27;100065.34;;;14.34;49.65
80938;BME280;70395;51.382;7.074;2023-12-28T12:35:54;100053.91;;;14.32;50.04
80938;BME280;70395;51.382;7.074;2023-12-28T12:38:20;100051.38;;;14.30;50.42
80938;BME280;70395;51.382;7.074;2023-12-28T12:40:46;100039.91;;;14.28;50.29
80938;BME280;70395;51.382;7.074;2023-12-28T12:43:12;100041.78;;;14.28;50.02
80938;BME280;70395;51.382;7.074;2023-12-28T12:45:38;100039.91;;;14.28;49.90
80938;BME280;70395;51.382;7.074;2023-12-28T12:48:05;100039.25;;;14.26;49.72
80938;BME280;70395;51.382;7.074;2023-12-28T12:50:34;100039.78;;;14.22;50.20
80938;BME280;70395;51.382;7.074;2023-12-28T12:53:01;100031.69;;;14.22;49.81
80938;BME280;70395;51.382;7.074;2023-12-28T12:55:27;100049.41;;;14.16;50.18
80938;BME280;70395;51.382;7.074;2023-12-28T12:57:55;100034.94;;;14.17;50.79
80938;BME280;70395;51.382;7.074;2023-12-28T13:00:24;100037.28;;;14.20;50.09
80938;BME280;70395;51.382;7.074;2023-12-28T13:02:50;100042.50;;;14.22;50.39